Terre Haute, IN (47801)

10:14 AM EDT on July 26, 2016 (GMT -0400)
APRSWXNET | | Change Station
Active Advisory: Areal Flood Advisory

Elev 495 ft 39.50 °N, 87.40 °W | Updated 34 minutes ago

Thunderstorms and Rain
Thunderstorm Rain Mist
71 °F
Feels Like 71 °F
N
0
Wind Variable Wind from NE
Gusts 0.0 mph

Today
High -- | Low -- °F
--% Chance of Precip.
Yesterday
High -- | Low -- °F
Precip. -- in
Pressure 30.07 in
Visibility 3.0 miles
Clouds Scattered Clouds 5000 ft
Mostly Cloudy 6500 ft
Overcast 9000 ft
Dew Point 71 °F
Humidity 99%
Rainfall in
Snow Depth Not available.
6:44 AM 9:07 PM
Waning Gibbous, 54% visible
SPECI KHUF 261411Z 06003KT 3SM TSRA BR SCT050 BKN065 OVC090 21/19 A3007 RMK AO2 LTG DSNT ALQDS P0006 T02110194
Pressure 30.07 in
Visibility 3.0 miles
Clouds Scattered Clouds 5000 ft
Mostly Cloudy 6500 ft
Overcast 9000 ft
Dew Point 71 °F
Humidity 99%
Rainfall in
Snow Depth Not available.
6:44 AM 9:07 PM
Waning Gibbous, 54% visible
SPECI KHUF 261411Z 06003KT 3SM TSRA BR SCT050 BKN065 OVC090 21/19 A3007 RMK AO2 LTG DSNT ALQDS P0006 T02110194

10-Day Weather Forecast

Almanac

Astronomy

Jul. 26, 2016 Rise Set
Actual Time
Civil Twilight
Nautical Twilight
Astronomical Twilight
Moon
Length of Visible Light
Length of Day
Tomorrow will be .
, % of the Moon is Illuminated

Today's Extremes

State Highs State Lows

Community

WunderPhotos

Upload Photos

1,927,590 photos uploaded!

WunderBlog® & News

Nearby

Air Quality

  Air Quality AQ Index Pollutant
Not available.

Snow Depth

Station Depth Elevation

Earthquake Activity

City Distance Mag. Time & Date
Minimum magnitude displayed is 2.5.

Coastal Water Temperatures

Place Temperature

Stations

Nearby Weather Stations

Station Location Temp. Windchill Dew Point Humidity Wind Precip. Elev Updated Type
                   

Watches & Warnings

Areal Flood Advisory
Issued: 10:04 AM EDT Jul. 26, 2016 – National Weather Service

The National Weather Service in Indianapolis has issued a

* Flood Advisory for...
southern Vigo County in west central Indiana...

* until 200 PM EDT

* at 1003 am EDT... Doppler radar indicated heavy rain due to
thunderstorms. This will cause minor flooding in the advisory area.

* Some locations that will experience flooding include...
Terre Haute... West Terre Haute... Prairieton... Prairie Creek...
Riley and Pimento.

Precautionary/preparedness actions...

Turn around... don't drown when encountering flooded roads. Most flood
deaths occur in vehicles.


Lat... Lon 3935 8754 3935 8753 3946 8753 3946 8724
      3930 8724 3928 8754


Nield